Time;durP1;ratioP1;P1;durP2;ratioP2;P2;SDS_P1;SDS_P2;PMS_P1;PMS_P2;Temp;Humidity;BMP_temperature;BMP_pressure;BME280_temperature;BME280_humidity;BME280_pressure;Samples;Min_cycle;Max_cycle;Signal;HPM_P1;HPM_P2
2020/12/28 00:00:35;;;;;;;4.90;2.25;;;;;;;;;;4794130;30;20211;-94
2020/12/28 00:03:05;;;;;;;2.47;1.80;;;;;;;;;;4794481;30;20206;-93
2020/12/28 00:05:42;;;;;;;2.08;1.98;;;;;;;;;;4795601;29;20203;-93
2020/12/28 00:08:09;;;;;;;1.70;1.60;;;;;;;;;;4796682;29;20199;-92
2020/12/28 00:10:45;;;;;;;1.77;1.67;;;;;;;;;;4794091;30;20192;-94
2020/12/28 00:13:26;;;;;;;1.77;1.67;;;;;;;;;;4794677;29;20241;-92
2020/12/28 00:15:56;;;;;;;1.58;1.50;;;;;;;;;;4794584;29;20207;-93
2020/12/28 00:18:23;;;;;;;2.80;1.90;;;;;;;;;;4794068;30;20221;-93
2020/12/28 00:20:50;;;;;;;1.70;1.60;;;;;;;;;;4794057;30;20239;-93
2020/12/28 00:23:23;;;;;;;1.80;1.70;;;;;;;;;;4794088;30;20535;-93
2020/12/28 00:25:53;;;;;;;1.83;1.73;;;;;;;;;;4792027;30;20599;-92
2020/12/28 00:28:40;;;;;;;1.80;1.70;;;;;;;;;;4793788;30;20294;-94
2020/12/28 00:31:11;;;;;;;1.65;1.55;;;;;;;;;;4790992;30;20613;-93
2020/12/28 00:33:39;;;;;;;1.85;1.75;;;;;;;;;;4793613;30;20360;-92
2020/12/28 00:36:24;;;;;;;1.55;1.45;;;;;;;;;;4795806;29;20225;-93
2020/12/28 00:38:51;;;;;;;1.80;1.70;;;;;;;;;;4791597;30;20191;-91
2020/12/28 00:41:18;;;;;;;1.33;1.33;;;;;;;;;;4793564;30;20555;-93
2020/12/28 00:43:46;;;;;;;1.50;1.40;;;;;;;;;;4793374;30;20195;-92
2020/12/28 00:46:24;;;;;;;1.48;1.38;;;;;;;;;;4793478;29;20242;-92
2020/12/28 00:48:59;;;;;;;1.90;1.80;;;;;;;;;;4792649;30;20203;-94
2020/12/28 00:51:29;;;;;;;1.90;1.77;;;;;;;;;;4794429;29;20203;-95
2020/12/28 00:53:57;;;;;;;2.20;1.95;;;;;;;;;;4795862;29;20343;-94
2020/12/28 00:56:29;;;;;;;1.80;1.70;;;;;;;;;;4795773;29;20226;-95
2020/12/28 00:59:40;;;;;;;1.95;1.85;;;;;;;;;;4797228;30;20286;-95
2020/12/28 01:02:22;;;;;;;3.30;2.17;;;;;;;;;;4800688;30;20219;-95
2020/12/28 01:04:50;;;;;;;1.65;1.55;;;;;;;;;;4800568;29;20200;-95
2020/12/28 01:07:29;;;;;;;1.63;1.40;;;;;;;;;;4794850;29;20211;-95
2020/12/28 01:10:02;;;;;;;1.30;1.20;;;;;;;;;;4799868;30;20271;-96
2020/12/28 01:12:31;;;;;;;2.22;1.25;;;;;;;;;;4798851;30;20292;-92
2020/12/28 01:14:59;;;;;;;1.50;1.40;;;;;;;;;;4851499;24;20233;-90
2020/12/28 01:17:26;;;;;;;1.38;1.20;;;;;;;;;;4827447;29;20210;-92
2020/12/28 01:19:53;;;;;;;1.33;1.23;;;;;;;;;;4829513;29;20222;-92
2020/12/28 01:22:20;;;;;;;1.00;1.00;;;;;;;;;;4829670;29;20285;-91
2020/12/28 01:24:47;;;;;;;1.10;1.10;;;;;;;;;;4829942;29;20606;-90
2020/12/28 01:27:14;;;;;;;1.15;1.10;;;;;;;;;;4829991;29;20198;-90
2020/12/28 01:29:41;;;;;;;1.20;1.20;;;;;;;;;;4829590;29;20194;-89
2020/12/28 01:32:12;;;;;;;1.35;1.30;;;;;;;;;;4829576;29;20758;-90
2020/12/28 01:34:39;;;;;;;1.35;0.98;;;;;;;;;;4829503;29;20557;-90
2020/12/28 01:37:06;;;;;;;1.05;1.05;;;;;;;;;;4829550;29;20280;-92
2020/12/28 01:39:33;;;;;;;1.20;1.20;;;;;;;;;;4828960;29;20561;-90
2020/12/28 01:42:00;;;;;;;1.27;1.10;;;;;;;;;;4829470;29;20292;-90
2020/12/28 01:44:27;;;;;;;0.90;0.90;;;;;;;;;;4829113;29;20201;-92
2020/12/28 01:46:54;;;;;;;0.93;0.93;;;;;;;;;;4811112;29;20520;-89
2020/12/28 01:49:22;;;;;;;1.15;1.15;;;;;;;;;;4811070;29;20579;-89
2020/12/28 01:51:49;;;;;;;1.60;1.00;;;;;;;;;;4811427;29;20215;-91
2020/12/28 01:54:17;;;;;;;1.00;1.00;;;;;;;;;;4811106;29;20279;-92
2020/12/28 01:56:44;;;;;;;0.93;0.93;;;;;;;;;;4810992;29;20573;-91
2020/12/28 01:59:12;;;;;;;1.00;1.00;;;;;;;;;;4811112;29;20216;-89
2020/12/28 02:01:41;;;;;;;0.93;0.93;;;;;;;;;;4811060;29;20215;-92
2020/12/28 02:04:15;;;;;;;0.80;0.80;;;;;;;;;;4812406;29;20210;-88
2020/12/28 02:06:43;;;;;;;0.88;0.88;;;;;;;;;;4814583;29;20209;-91
2020/12/28 02:09:10;;;;;;;0.98;0.98;;;;;;;;;;4814360;29;20280;-90
2020/12/28 02:11:37;;;;;;;0.80;0.80;;;;;;;;;;4814815;29;20202;-90
2020/12/28 02:14:04;;;;;;;1.17;1.15;;;;;;;;;;4814232;29;20562;-90
2020/12/28 02:16:31;;;;;;;0.80;0.80;;;;;;;;;;4814022;29;20262;-92
2020/12/28 02:18:59;;;;;;;1.02;1.02;;;;;;;;;;4814682;29;20214;-90
2020/12/28 02:21:26;;;;;;;0.70;0.70;;;;;;;;;;4814358;29;20285;-91
2020/12/28 02:23:54;;;;;;;1.05;1.02;;;;;;;;;;4814306;29;20207;-90
2020/12/28 02:26:21;;;;;;;0.98;0.98;;;;;;;;;;4814194;29;20289;-91
2020/12/28 02:28:48;;;;;;;1.23;1.13;;;;;;;;;;4814030;29;20486;-91
2020/12/28 02:31:15;;;;;;;0.85;0.85;;;;;;;;;;4814197;29;20565;-90
2020/12/28 02:33:42;;;;;;;1.15;1.10;;;;;;;;;;4814026;29;20235;-90
2020/12/28 02:36:09;;;;;;;1.00;1.00;;;;;;;;;;4813985;29;20236;-90
2020/12/28 02:38:37;;;;;;;0.98;0.98;;;;;;;;;;4814304;29;20211;-91
2020/12/28 02:41:06;;;;;;;1.25;1.15;;;;;;;;;;4814189;29;20211;-91
2020/12/28 02:43:33;;;;;;;1.08;1.05;;;;;;;;;;4814116;29;20506;-92
2020/12/28 02:46:00;;;;;;;1.10;1.10;;;;;;;;;;4813655;29;20549;-90
2020/12/28 02:48:27;;;;;;;0.80;0.80;;;;;;;;;;4813669;29;20206;-90
2020/12/28 02:50:54;;;;;;;0.80;0.80;;;;;;;;;;4813810;29;20644;-89
2020/12/28 02:53:21;;;;;;;0.90;0.90;;;;;;;;;;4813641;29;20321;-90
2020/12/28 02:55:48;;;;;;;0.88;0.85;;;;;;;;;;4814008;29;20234;-88
2020/12/28 02:58:16;;;;;;;1.00;1.00;;;;;;;;;;4813548;29;20198;-91
2020/12/28 03:00:45;;;;;;;0.95;0.95;;;;;;;;;;4813730;29;20236;-90
2020/12/28 03:03:12;;;;;;;0.90;0.90;;;;;;;;;;4813969;29;20297;-90
2020/12/28 03:05:39;;;;;;;0.90;0.90;;;;;;;;;;4813673;29;20241;-91
2020/12/28 03:08:06;;;;;;;1.10;1.05;;;;;;;;;;4813957;29;20511;-91
2020/12/28 03:10:33;;;;;;;0.93;0.90;;;;;;;;;;4813458;29;20214;-92
2020/12/28 03:13:00;;;;;;;1.08;1.08;;;;;;;;;;4813461;29;20214;-91
2020/12/28 03:15:28;;;;;;;1.05;1.05;;;;;;;;;;4812419;29;20616;-92
2020/12/28 03:17:55;;;;;;;1.10;1.10;;;;;;;;;;4813518;29;20221;-90
2020/12/28 03:20:22;;;;;;;1.00;1.00;;;;;;;;;;4813626;29;20206;-92
2020/12/28 03:22:49;;;;;;;1.00;1.00;;;;;;;;;;4813356;29;20661;-91
2020/12/28 03:25:16;;;;;;;1.67;1.58;;;;;;;;;;4813491;29;20210;-90
2020/12/28 03:27:43;;;;;;;1.00;1.00;;;;;;;;;;4813401;29;20210;-91
2020/12/28 03:30:10;;;;;;;1.00;1.00;;;;;;;;;;4813500;29;20265;-92
2020/12/28 03:32:38;;;;;;;1.75;1.65;;;;;;;;;;4813451;29;20206;-91
2020/12/28 03:35:05;;;;;;;1.25;1.23;;;;;;;;;;4812736;29;20322;-91
2020/12/28 03:37:32;;;;;;;1.42;1.38;;;;;;;;;;4813027;29;20202;-92
2020/12/28 03:39:59;;;;;;;1.05;1.05;;;;;;;;;;4812667;29;20649;-91
2020/12/28 03:42:26;;;;;;;1.13;1.13;;;;;;;;;;4805912;29;20210;-89
2020/12/28 03:44:53;;;;;;;1.00;1.00;;;;;;;;;;4813076;29;20199;-91
2020/12/28 03:47:20;;;;;;;1.08;1.08;;;;;;;;;;4813457;29;20545;-90
2020/12/28 03:49:49;;;;;;;1.10;1.10;;;;;;;;;;4813204;29;20214;-90
2020/12/28 03:52:16;;;;;;;0.90;0.90;;;;;;;;;;4812738;29;20585;-91
2020/12/28 03:54:45;;;;;;;2.22;1.15;;;;;;;;;;4812574;29;20259;-92
2020/12/28 03:57:12;;;;;;;1.17;1.08;;;;;;;;;;4812771;29;20592;-90
2020/12/28 03:59:39;;;;;;;0.90;0.90;;;;;;;;;;4812997;29;20468;-91
2020/12/28 04:02:06;;;;;;;0.88;0.88;;;;;;;;;;4812685;29;20214;-90
2020/12/28 04:04:33;;;;;;;0.95;0.95;;;;;;;;;;4812665;29;20207;-90
2020/12/28 04:07:01;;;;;;;0.85;0.85;;;;;;;;;;4812518;29;20242;-90
2020/12/28 04:09:28;;;;;;;0.90;0.90;;;;;;;;;;4813029;29;20203;-91
2020/12/28 04:11:55;;;;;;;0.95;0.95;;;;;;;;;;4812957;29;20293;-90
2020/12/28 04:14:23;;;;;;;1.30;0.80;;;;;;;;;;4812810;29;20250;-89
2020/12/28 04:16:50;;;;;;;0.85;0.85;;;;;;;;;;4811955;29;20239;-90
2020/12/28 04:19:17;;;;;;;1.13;1.02;;;;;;;;;;4812322;29;20206;-89
2020/12/28 04:21:43;;;;;;;1.00;1.00;;;;;;;;;;4812606;29;20210;-91
2020/12/28 04:24:15;;;;;;;1.00;1.00;;;;;;;;;;4812553;29;20199;-90
2020/12/28 04:26:43;;;;;;;0.82;0.82;;;;;;;;;;4811302;29;20612;-90
2020/12/28 04:29:11;;;;;;;0.90;0.90;;;;;;;;;;4811989;29;20214;-89
2020/12/28 04:31:38;;;;;;;0.90;0.90;;;;;;;;;;4811977;29;20215;-90
2020/12/28 04:34:05;;;;;;;1.20;1.20;;;;;;;;;;4811994;29;20230;-90
2020/12/28 04:36:32;;;;;;;0.80;0.80;;;;;;;;;;4812084;29;20226;-89
2020/12/28 04:38:59;;;;;;;0.90;0.90;;;;;;;;;;4812205;29;20305;-89
2020/12/28 04:41:30;;;;;;;1.33;1.23;;;;;;;;;;4812072;29;20206;-90
2020/12/28 04:43:57;;;;;;;1.23;0.93;;;;;;;;;;4812010;29;20302;-89
2020/12/28 04:46:25;;;;;;;1.13;1.13;;;;;;;;;;4811964;29;20230;-89
2020/12/28 04:48:54;;;;;;;1.58;1.23;;;;;;;;;;4812127;29;20206;-88
2020/12/28 04:51:22;;;;;;;0.90;0.90;;;;;;;;;;4811818;29;20206;-90
2020/12/28 04:53:51;;;;;;;1.20;1.15;;;;;;;;;;4811653;29;20226;-88
2020/12/28 04:56:19;;;;;;;1.17;1.17;;;;;;;;;;4811706;29;20202;-88
2020/12/28 04:58:47;;;;;;;0.98;0.98;;;;;;;;;;4811644;29;20220;-89
2020/12/28 05:01:14;;;;;;;1.02;1.02;;;;;;;;;;4811832;29;20198;-89
2020/12/28 05:03:42;;;;;;;1.20;1.20;;;;;;;;;;4811631;29;20206;-89
2020/12/28 05:06:10;;;;;;;0.93;0.93;;;;;;;;;;4811623;29;20236;-90
2020/12/28 05:08:44;;;;;;;1.73;1.63;;;;;;;;;;4811867;29;20514;-89
2020/12/28 05:11:14;;;;;;;0.85;0.85;;;;;;;;;;4811509;29;20202;-90
2020/12/28 05:13:47;;;;;;;1.00;1.00;;;;;;;;;;4811461;29;20481;-89
2020/12/28 05:16:14;;;;;;;0.90;0.90;;;;;;;;;;4811422;29;20250;-88
2020/12/28 05:18:41;;;;;;;1.05;1.05;;;;;;;;;;4811667;29;20262;-89
2020/12/28 05:21:08;;;;;;;1.15;1.15;;;;;;;;;;4811200;29;20541;-90
2020/12/28 05:23:35;;;;;;;1.70;1.50;;;;;;;;;;4811699;29;20199;-92
2020/12/28 05:26:06;;;;;;;1.98;1.42;;;;;;;;;;4810992;29;20640;-91
2020/12/28 05:28:37;;;;;;;1.63;1.52;;;;;;;;;;4811555;29;20298;-92
2020/12/28 05:31:08;;;;;;;1.38;1.38;;;;;;;;;;4811116;29;20588;-91
2020/12/28 05:33:35;;;;;;;1.55;1.42;;;;;;;;;;4811325;29;20549;-90
2020/12/28 05:36:03;;;;;;;1.85;1.75;;;;;;;;;;4811463;29;20246;-91
2020/12/28 05:38:30;;;;;;;2.08;1.90;;;;;;;;;;4811010;29;20581;-91
2020/12/28 05:41:05;;;;;;;1.65;1.33;;;;;;;;;;4811380;29;20218;-89
2020/12/28 05:43:33;;;;;;;1.17;1.17;;;;;;;;;;4811451;29;20202;-90
2020/12/28 05:46:00;;;;;;;1.40;1.17;;;;;;;;;;4811089;29;20246;-91
2020/12/28 05:48:28;;;;;;;1.20;1.15;;;;;;;;;;4811311;29;20542;-91
2020/12/28 05:50:58;;;;;;;1.00;1.00;;;;;;;;;;4811499;29;20288;-90
2020/12/28 05:53:26;;;;;;;1.10;1.10;;;;;;;;;;4811361;29;20215;-91
2020/12/28 05:55:53;;;;;;;1.23;1.20;;;;;;;;;;4811103;29;20321;-92
2020/12/28 05:58:21;;;;;;;0.90;0.90;;;;;;;;;;4811058;29;20236;-91
2020/12/28 06:00:51;;;;;;;0.98;0.98;;;;;;;;;;4811069;29;20230;-90
2020/12/28 06:03:25;;;;;;;1.00;1.00;;;;;;;;;;4811184;29;20206;-91
2020/12/28 06:05:54;;;;;;;1.08;1.08;;;;;;;;;;4810963;29;20235;-92
2020/12/28 06:08:22;;;;;;;0.90;0.90;;;;;;;;;;4810981;29;20206;-91
2020/12/28 06:10:50;;;;;;;1.30;1.30;;;;;;;;;;4810898;29;20207;-91
2020/12/28 06:13:24;;;;;;;1.10;1.10;;;;;;;;;;4811449;29;20289;-91
2020/12/28 06:16:02;;;;;;;1.05;1.05;;;;;;;;;;4810453;29;20237;-91
2020/12/28 06:18:29;;;;;;;1.10;1.10;;;;;;;;;;4811200;29;20282;-91
2020/12/28 06:20:57;;;;;;;1.23;1.13;;;;;;;;;;4810712;29;20569;-91
2020/12/28 06:23:28;;;;;;;1.42;1.33;;;;;;;;;;4811229;29;20218;-92
2020/12/28 06:25:56;;;;;;;1.17;1.17;;;;;;;;;;4810946;29;20527;-92
2020/12/28 06:28:24;;;;;;;1.33;1.23;;;;;;;;;;4810887;29;20330;-90
2020/12/28 06:30:52;;;;;;;1.08;1.08;;;;;;;;;;4810775;29;20271;-91
2020/12/28 06:33:19;;;;;;;1.10;1.10;;;;;;;;;;4811062;29;20553;-91
2020/12/28 06:35:46;;;;;;;1.35;1.25;;;;;;;;;;4810707;29;20223;-91
2020/12/28 06:38:25;;;;;;;1.42;1.38;;;;;;;;;;4810751;29;20302;-90
2020/12/28 06:40:52;;;;;;;1.20;1.20;;;;;;;;;;4810717;29;20211;-92
2020/12/28 06:43:20;;;;;;;1.13;1.13;;;;;;;;;;4810810;29;20263;-91
2020/12/28 06:45:50;;;;;;;1.20;1.20;;;;;;;;;;4810484;29;20242;-90
2020/12/28 06:48:18;;;;;;;1.15;1.15;;;;;;;;;;4810907;29;20241;-91
2020/12/28 06:50:45;;;;;;;1.67;1.58;;;;;;;;;;4811661;29;20560;-92
2020/12/28 06:53:13;;;;;;;1.10;1.10;;;;;;;;;;4813982;29;20206;-90
2020/12/28 06:55:40;;;;;;;1.45;1.35;;;;;;;;;;4813935;29;20235;-92
2020/12/28 06:58:07;;;;;;;1.38;1.27;;;;;;;;;;4814011;29;20326;-91
2020/12/28 07:00:34;;;;;;;1.23;1.13;;;;;;;;;;4813832;29;20484;-91
2020/12/28 07:03:01;;;;;;;1.20;1.10;;;;;;;;;;4813963;29;20203;-90
2020/12/28 07:05:28;;;;;;;1.17;1.17;;;;;;;;;;4813674;29;20218;-91
2020/12/28 07:07:55;;;;;;;1.15;1.15;;;;;;;;;;4813677;29;20281;-91
2020/12/28 07:10:24;;;;;;;1.45;1.35;;;;;;;;;;4813543;29;20207;-92
2020/12/28 07:12:52;;;;;;;1.52;1.42;;;;;;;;;;4813703;29;20568;-92
2020/12/28 07:15:19;;;;;;;1.42;1.40;;;;;;;;;;4813122;29;20287;-91
2020/12/28 07:17:47;;;;;;;1.50;1.40;;;;;;;;;;4813856;29;20293;-90
2020/12/28 07:20:15;;;;;;;1.50;1.40;;;;;;;;;;4813324;29;20214;-92
2020/12/28 07:22:44;;;;;;;1.50;1.48;;;;;;;;;;4813500;29;20294;-92
2020/12/28 07:25:13;;;;;;;1.70;1.60;;;;;;;;;;4813338;29;20348;-93
2020/12/28 07:27:41;;;;;;;2.03;1.92;;;;;;;;;;4813584;29;20207;-92
2020/12/28 07:30:10;;;;;;;2.25;2.08;;;;;;;;;;4813266;29;20234;-93
2020/12/28 07:32:38;;;;;;;2.30;2.17;;;;;;;;;;4813268;29;20207;-91
2020/12/28 07:35:06;;;;;;;2.38;2.28;;;;;;;;;;4813377;29;20240;-92
2020/12/28 07:37:38;;;;;;;2.10;2.00;;;;;;;;;;4813201;29;20220;-91
2020/12/28 07:40:05;;;;;;;3.22;3.00;;;;;;;;;;4813169;29;20206;-93
2020/12/28 07:42:32;;;;;;;2.97;2.78;;;;;;;;;;4813394;29;20473;-90
2020/12/28 07:45:03;;;;;;;2.58;2.38;;;;;;;;;;4813179;29;20214;-92
2020/12/28 07:47:42;;;;;;;3.58;3.28;;;;;;;;;;4812952;29;20295;-92
2020/12/28 07:50:09;;;;;;;3.80;3.47;;;;;;;;;;4812854;29;20206;-92
2020/12/28 07:52:46;;;;;;;3.80;3.40;;;;;;;;;;4813392;29;20206;-91
2020/12/28 07:55:19;;;;;;;3.70;3.40;;;;;;;;;;4813015;29;20227;-93
2020/12/28 07:58:10;;;;;;;3.83;3.53;;;;;;;;;;4813117;29;20202;-92
2020/12/28 08:00:44;;;;;;;2.75;2.55;;;;;;;;;;4812726;29;20218;-92
2020/12/28 08:03:18;;;;;;;2.50;2.30;;;;;;;;;;4812883;29;20214;-91
2020/12/28 08:05:46;;;;;;;1.90;1.80;;;;;;;;;;4813053;29;20218;-91
2020/12/28 08:08:25;;;;;;;2.25;2.15;;;;;;;;;;4812672;29;20217;-92
2020/12/28 08:10:54;;;;;;;2.42;2.22;;;;;;;;;;4812518;29;20266;-92
2020/12/28 08:13:29;;;;;;;1.95;1.85;;;;;;;;;;4757697;30;20231;-92
2020/12/28 08:16:09;;;;;;;2.85;1.50;;;;;;;;;;4766306;30;20247;-92
2020/12/28 08:18:50;;;;;;;1.20;1.20;;;;;;;;;;4775231;30;20214;-92
2020/12/28 08:21:17;;;;;;;2.28;1.23;;;;;;;;;;4775199;30;20212;-92
2020/12/28 08:23:52;;;;;;;1.10;1.00;;;;;;;;;;4775300;30;20307;-93
2020/12/28 08:26:20;;;;;;;4.88;0.90;;;;;;;;;;4775176;30;20302;-91
2020/12/28 08:28:50;;;;;;;1.02;1.02;;;;;;;;;;4774849;30;20654;-91
2020/12/28 08:31:24;;;;;;;0.98;0.98;;;;;;;;;;4790425;29;20292;-92
2020/12/28 08:34:00;;;;;;;1.15;1.10;;;;;;;;;;4812224;29;20218;-91
2020/12/28 08:36:27;;;;;;;1.42;1.42;;;;;;;;;;4812080;29;20218;-89
2020/12/28 08:38:55;;;;;;;0.95;0.95;;;;;;;;;;4812497;29;20218;-92
2020/12/28 08:41:22;;;;;;;1.00;1.00;;;;;;;;;;4812000;29;20290;-93
2020/12/28 08:43:49;;;;;;;0.93;0.93;;;;;;;;;;4812034;29;20234;-93
2020/12/28 08:46:24;;;;;;;1.00;1.00;;;;;;;;;;4811921;29;20313;-91
2020/12/28 08:48:56;;;;;;;1.15;1.10;;;;;;;;;;4812205;29;20206;-91
2020/12/28 08:51:23;;;;;;;1.20;1.20;;;;;;;;;;4812057;29;20229;-91
2020/12/28 08:53:51;;;;;;;0.93;0.93;;;;;;;;;;4811833;29;20210;-91
2020/12/28 08:56:20;;;;;;;1.08;1.08;;;;;;;;;;4811762;29;20617;-91
2020/12/28 08:58:50;;;;;;;1.52;1.42;;;;;;;;;;4811661;29;20202;-90
2020/12/28 09:01:17;;;;;;;1.08;1.08;;;;;;;;;;4811646;29;20226;-89
2020/12/28 09:03:45;;;;;;;0.82;0.82;;;;;;;;;;4811560;29;20299;-89
2020/12/28 09:06:13;;;;;;;0.82;0.82;;;;;;;;;;4811649;29;20525;-89
2020/12/28 09:08:40;;;;;;;0.85;0.85;;;;;;;;;;4811840;29;20322;-89
2020/12/28 09:11:08;;;;;;;1.15;1.15;;;;;;;;;;4811908;29;20225;-90
2020/12/28 09:13:35;;;;;;;0.90;0.90;;;;;;;;;;4810678;29;20601;-89
2020/12/28 09:16:02;;;;;;;0.80;0.80;;;;;;;;;;4811034;29;20321;-88
2020/12/28 09:18:29;;;;;;;1.08;1.08;;;;;;;;;;4811157;29;20578;-89
2020/12/28 09:20:57;;;;;;;1.05;1.02;;;;;;;;;;4812101;29;20290;-90
2020/12/28 09:23:24;;;;;;;1.23;1.13;;;;;;;;;;4812120;29;20206;-89
2020/12/28 09:25:51;;;;;;;1.00;1.00;;;;;;;;;;4812075;29;20226;-91
2020/12/28 09:28:18;;;;;;;1.00;1.00;;;;;;;;;;4812023;29;20210;-90
2020/12/28 09:30:45;;;;;;;0.82;0.82;;;;;;;;;;4812118;29;20219;-89
2020/12/28 09:33:12;;;;;;;1.02;1.02;;;;;;;;;;4811356;29;20622;-89
2020/12/28 09:35:39;;;;;;;1.30;1.20;;;;;;;;;;4811644;29;20317;-89
2020/12/28 09:38:07;;;;;;;1.05;1.05;;;;;;;;;;4811683;29;20206;-89
2020/12/28 09:40:34;;;;;;;1.45;1.35;;;;;;;;;;4811589;29;20207;-89
2020/12/28 09:43:01;;;;;;;1.40;1.30;;;;;;;;;;4812217;29;20206;-88
2020/12/28 09:45:38;;;;;;;1.63;1.52;;;;;;;;;;4811101;29;20296;-89
2020/12/28 09:48:05;;;;;;;2.00;1.88;;;;;;;;;;4811172;29;20652;-89
2020/12/28 09:50:32;;;;;;;2.08;1.98;;;;;;;;;;4811431;29;20207;-90
2020/12/28 09:52:59;;;;;;;2.17;2.03;;;;;;;;;;4811198;29;20203;-88
2020/12/28 09:55:27;;;;;;;1.83;1.73;;;;;;;;;;4811595;29;20220;-88
2020/12/28 09:57:54;;;;;;;2.45;2.33;;;;;;;;;;4811561;29;20226;-88
2020/12/28 10:00:21;;;;;;;1.83;1.73;;;;;;;;;;4811747;29;20210;-89
2020/12/28 10:02:49;;;;;;;2.47;2.28;;;;;;;;;;4811222;29;20206;-89
2020/12/28 10:05:16;;;;;;;1.58;1.48;;;;;;;;;;4811738;29;20214;-88
2020/12/28 10:07:43;;;;;;;2.10;2.00;;;;;;;;;;4811673;29;20520;-88
2020/12/28 10:10:11;;;;;;;2.22;2.10;;;;;;;;;;4811476;29;20215;-88
2020/12/28 10:12:38;;;;;;;2.60;1.80;;;;;;;;;;4811363;29;20202;-88
2020/12/28 10:15:06;;;;;;;2.33;2.20;;;;;;;;;;4811063;29;20554;-89
2020/12/28 10:17:33;;;;;;;1.90;1.80;;;;;;;;;;4811013;29;20239;-90
2020/12/28 10:20:00;;;;;;;1.90;1.80;;;;;;;;;;4811417;29;20282;-90
2020/12/28 10:22:28;;;;;;;2.30;2.10;;;;;;;;;;4811611;29;20221;-91
2020/12/28 10:24:55;;;;;;;1.90;1.80;;;;;;;;;;4811522;29;20203;-88
2020/12/28 10:27:23;;;;;;;2.40;2.30;;;;;;;;;;4814903;29;20313;-89
2020/12/28 10:29:51;;;;;;;2.10;2.00;;;;;;;;;;4814819;29;20203;-90
2020/12/28 10:32:18;;;;;;;2.00;1.90;;;;;;;;;;4815295;29;20290;-89
2020/12/28 10:34:45;;;;;;;2.30;2.10;;;;;;;;;;4814531;29;20222;-89
2020/12/28 10:37:12;;;;;;;2.10;2.00;;;;;;;;;;4814755;29;20322;-89
2020/12/28 10:39:39;;;;;;;2.28;1.90;;;;;;;;;;4814696;29;20275;-88
2020/12/28 10:42:06;;;;;;;1.73;1.63;;;;;;;;;;4814619;29;20441;-89
2020/12/28 10:44:33;;;;;;;2.33;2.22;;;;;;;;;;4814928;29;20281;-89
2020/12/28 10:47:01;;;;;;;1.25;1.20;;;;;;;;;;4814710;29;20309;-89
2020/12/28 10:49:28;;;;;;;2.03;1.77;;;;;;;;;;4814149;29;20293;-89
2020/12/28 10:51:55;;;;;;;1.42;1.33;;;;;;;;;;4814776;29;20206;-90
2020/12/28 10:54:22;;;;;;;1.75;1.65;;;;;;;;;;4814972;29;20222;-90
2020/12/28 10:56:49;;;;;;;1.10;1.10;;;;;;;;;;4814673;29;20302;-89
2020/12/28 10:59:16;;;;;;;5.18;2.00;;;;;;;;;;4814259;29;20214;-89
2020/12/28 11:01:43;;;;;;;1.50;1.40;;;;;;;;;;4814070;29;20266;-90
2020/12/28 11:04:11;;;;;;;1.38;1.20;;;;;;;;;;4814016;29;20207;-91
2020/12/28 11:06:46;;;;;;;1.90;1.80;;;;;;;;;;4813914;29;20199;-92
2020/12/28 11:09:13;;;;;;;1.42;1.20;;;;;;;;;;4759111;30;20216;-91
2020/12/28 11:11:40;;;;;;;1.98;1.35;;;;;;;;;;4758925;30;20576;-90
2020/12/28 11:14:07;;;;;;;1.30;1.20;;;;;;;;;;4759054;30;20300;-90
2020/12/28 11:16:34;;;;;;;5.95;2.38;;;;;;;;;;4772065;30;20253;-92
2020/12/28 11:19:01;;;;;;;1.35;1.30;;;;;;;;;;4776549;30;20220;-91
2020/12/28 11:21:29;;;;;;;4.25;1.45;;;;;;;;;;4777138;30;20218;-90
2020/12/28 11:23:59;;;;;;;0.90;0.90;;;;;;;;;;4776470;30;20211;-91
2020/12/28 11:26:27;;;;;;;2.75;1.20;;;;;;;;;;4782371;29;20203;-91
2020/12/28 11:28:54;;;;;;;1.40;1.20;;;;;;;;;;4813356;29;20589;-89
2020/12/28 11:31:22;;;;;;;2.17;1.27;;;;;;;;;;4813316;29;20210;-89
2020/12/28 11:33:49;;;;;;;1.80;1.40;;;;;;;;;;4813188;29;20289;-90
2020/12/28 11:36:17;;;;;;;1.98;1.58;;;;;;;;;;4795988;29;20245;-90
2020/12/28 11:38:49;;;;;;;1.52;1.42;;;;;;;;;;4814178;29;20573;-89
2020/12/28 11:41:17;;;;;;;1.50;1.40;;;;;;;;;;4812816;29;20213;-90
2020/12/28 11:43:45;;;;;;;1.45;1.35;;;;;;;;;;4813003;29;20206;-91
2020/12/28 11:46:13;;;;;;;1.35;1.25;;;;;;;;;;4812887;29;20234;-88
2020/12/28 11:48:40;;;;;;;1.60;1.50;;;;;;;;;;4812184;29;20218;-90
2020/12/28 11:51:09;;;;;;;1.33;1.17;;;;;;;;;;4812509;29;20575;-89
2020/12/28 11:53:40;;;;;;;1.48;1.30;;;;;;;;;;4812652;29;20194;-90
2020/12/28 11:56:12;;;;;;;1.60;1.50;;;;;;;;;;4833356;29;20201;-90
2020/12/28 11:58:42;;;;;;;1.30;1.20;;;;;;;;;;4812326;29;20222;-88
2020/12/28 12:01:13;;;;;;;1.60;1.50;;;;;;;;;;4812271;29;20214;-91
2020/12/28 12:03:40;;;;;;;1.50;1.40;;;;;;;;;;4811980;29;20267;-90
2020/12/28 12:06:13;;;;;;;1.40;1.30;;;;;;;;;;4812008;29;20238;-89
2020/12/28 12:09:09;;;;;;;1.67;1.58;;;;;;;;;;4811411;29;20210;-90
2020/12/28 12:11:30;;;;;;;1.63;1.52;;;;;;;;;;4811510;29;20219;-90
2020/12/28 12:13:57;;;;;;;1.40;1.30;;;;;;;;;;4812337;29;20293;-90
2020/12/28 12:16:25;;;;;;;1.50;1.40;;;;;;;;;;4811798;29;20684;-90
2020/12/28 12:18:53;;;;;;;1.50;1.40;;;;;;;;;;4812642;29;20202;-90
2020/12/28 12:21:20;;;;;;;1.52;1.42;;;;;;;;;;4813794;29;20213;-93
2020/12/28 12:23:47;;;;;;;1.92;1.60;;;;;;;;;;4816311;29;20195;-91
2020/12/28 12:28:58;;;;;;;1.70;1.55;;;;;;;;;;4811420;29;20620;-94
2020/12/28 12:31:26;;;;;;;1.58;1.48;;;;;;;;;;4816009;29;20249;-94
2020/12/28 12:33:55;;;;;;;1.60;1.50;;;;;;;;;;4818760;29;20221;-95
2020/12/28 12:36:23;;;;;;;2.13;1.40;;;;;;;;;;4799719;29;20287;-94
2020/12/28 12:39:37;;;;;;;1.60;1.50;;;;;;;;;;4815365;29;20214;-95
2020/12/28 12:42:05;;;;;;;1.35;1.20;;;;;;;;;;4726478;30;20660;-93
2020/12/28 12:44:37;;;;;;;1.30;1.17;;;;;;;;;;4756586;30;20270;-94
2020/12/28 12:47:05;;;;;;;2.78;2.50;;;;;;;;;;4757496;30;20204;-92
2020/12/28 12:49:32;;;;;;;2.58;1.75;;;;;;;;;;4756522;30;20539;-92
2020/12/28 12:52:23;;;;;;;2.30;2.03;;;;;;;;;;4757169;30;20374;-93
2020/12/28 12:54:50;;;;;;;1.55;1.45;;;;;;;;;;4756003;30;20220;-89
2020/12/28 12:57:18;;;;;;;2.40;1.73;;;;;;;;;;4744721;30;20702;-89
2020/12/28 13:00:03;;;;;;;1.10;1.05;;;;;;;;;;4738984;30;20217;-88
2020/12/28 13:02:30;;;;;;;1.70;1.60;;;;;;;;;;4739220;30;20318;-89
2020/12/28 13:05:01;;;;;;;1.30;1.20;;;;;;;;;;4739141;30;20530;-88
2020/12/28 13:07:28;;;;;;;1.98;1.15;;;;;;;;;;4738724;30;20232;-87
2020/12/28 13:09:56;;;;;;;1.35;1.25;;;;;;;;;;4737271;30;20209;-89
2020/12/28 13:12:23;;;;;;;2.28;1.30;;;;;;;;;;4738940;30;20651;-89
2020/12/28 13:25:49;;;;;;;1.70;1.60;;;;;;;;;;4844183;29;20248;-92
2020/12/28 13:28:16;;;;;;;1.33;1.33;;;;;;;;;;4845637;29;20194;-92
2020/12/28 13:30:44;;;;;;;1.45;1.30;;;;;;;;;;4844969;29;20216;-92
2020/12/28 13:33:11;;;;;;;1.60;1.50;;;;;;;;;;4847004;29;20209;-91
2020/12/28 13:35:38;;;;;;;2.05;1.83;;;;;;;;;;4847552;29;20204;-91
2020/12/28 13:38:08;;;;;;;1.42;1.33;;;;;;;;;;4838710;29;20222;-90
2020/12/28 13:40:35;;;;;;;1.60;1.30;;;;;;;;;;4832649;29;20209;-92
2020/12/28 13:43:04;;;;;;;1.45;1.35;;;;;;;;;;4831218;29;20229;-90
2020/12/28 13:45:31;;;;;;;2.15;1.95;;;;;;;;;;4830302;29;20206;-92
2020/12/28 13:47:58;;;;;;;2.63;1.60;;;;;;;;;;4829865;29;20190;-92
2020/12/28 13:50:25;;;;;;;2.60;2.30;;;;;;;;;;4829910;29;20198;-92
2020/12/28 13:52:52;;;;;;;2.15;1.80;;;;;;;;;;4821915;29;20238;-93
2020/12/28 13:55:19;;;;;;;2.50;2.30;;;;;;;;;;4817452;29;20599;-90
2020/12/28 13:57:47;;;;;;;2.42;2.08;;;;;;;;;;4824513;29;20291;-92
2020/12/28 14:00:15;;;;;;;2.85;2.45;;;;;;;;;;4827662;29;20194;-91
2020/12/28 14:02:42;;;;;;;2.38;2.05;;;;;;;;;;4831071;29;20222;-91
2020/12/28 14:05:09;;;;;;;3.13;2.83;;;;;;;;;;4840234;29;20464;-90
2020/12/28 14:07:36;;;;;;;4.05;2.80;;;;;;;;;;4843671;29;20205;-91
2020/12/28 14:10:04;;;;;;;3.95;3.40;;;;;;;;;;4844025;29;20229;-93
2020/12/28 14:12:32;;;;;;;3.95;2.95;;;;;;;;;;4838784;29;20201;-92
2020/12/28 14:14:59;;;;;;;2.05;1.95;;;;;;;;;;4823519;29;20210;-92
2020/12/28 14:17:27;;;;;;;2.22;2.00;;;;;;;;;;4824473;29;20475;-93
2020/12/28 14:19:55;;;;;;;2.95;2.55;;;;;;;;;;4825264;29;20544;-93
2020/12/28 14:22:29;;;;;;;2.15;1.95;;;;;;;;;;4824766;29;20628;-92
2020/12/28 14:24:57;;;;;;;3.80;3.53;;;;;;;;;;4825275;29;20237;-93
2020/12/28 14:27:24;;;;;;;3.38;3.08;;;;;;;;;;4825762;29;20195;-93
2020/12/28 14:29:51;;;;;;;4.32;3.92;;;;;;;;;;4823201;29;20292;-91
2020/12/28 14:32:19;;;;;;;5.10;3.85;;;;;;;;;;4830893;29;20237;-92
2020/12/28 14:34:47;;;;;;;4.85;4.45;;;;;;;;;;4834090;29;20210;-92
2020/12/28 14:37:15;;;;;;;4.78;4.38;;;;;;;;;;4835502;29;20281;-93
2020/12/28 14:39:42;;;;;;;4.80;3.83;;;;;;;;;;4837019;29;20241;-94
2020/12/28 14:42:09;;;;;;;5.43;4.93;;;;;;;;;;4836021;29;20225;-92
2020/12/28 14:44:37;;;;;;;4.40;4.00;;;;;;;;;;4835686;29;20536;-93
2020/12/28 14:47:05;;;;;;;4.60;3.65;;;;;;;;;;4835658;29;20221;-95
2020/12/28 14:49:32;;;;;;;4.13;3.45;;;;;;;;;;4833631;29;20222;-92
2020/12/28 14:52:01;;;;;;;4.20;3.80;;;;;;;;;;4833272;29;20230;-94
2020/12/28 14:54:28;;;;;;;5.28;4.18;;;;;;;;;;4833820;29;20288;-93
2020/12/28 14:56:58;;;;;;;3.92;3.63;;;;;;;;;;4836074;29;20198;-93
2020/12/28 14:59:26;;;;;;;4.22;3.90;;;;;;;;;;4835424;29;20244;-93
2020/12/28 15:01:53;;;;;;;3.67;3.38;;;;;;;;;;4834470;29;20285;-95
2020/12/28 15:04:20;;;;;;;5.38;4.85;;;;;;;;;;4834328;29;20209;-93
2020/12/28 15:07:03;;;;;;;4.18;3.78;;;;;;;;;;4833542;29;20533;-94